South Manheim, Pennsylvania
Current Conditions -  °F | °C
As of 8:54 AM on Monday 24 Nov 2014 (Local Time) from KRDG Reporting Station
Broken Clouds Broken Clouds  
Wind Chill: 65°   Ceiling: 1600
Heat Index: 65°   Visibility: 10mi
Dew Point: 59°   Wind: 17mph
Humidity: 81%   Direction: 190°S
Pressure: 29.63"   Gusts: 24mph
Location:  40.5871°N, 76.1396°W
Report Text: KRDG 241354Z AUTO 19015G21KT 10SM BKN016 18/15 A2963 RMK AO2 SLP039 T01830150
Loading
Personal Weather Stations






























Interactive Weather Map New forecast layout! Learn more

10-Day Weather Forecast

Advertisements
Track Severe Weather on mobile